createdAt,value
2018-02-01T00:08:15.963Z,98778
2018-02-01T00:18:17.579Z,98771
2018-02-01T00:28:19.105Z,98801
2018-02-01T00:38:20.607Z,98812
2018-02-01T00:48:22.117Z,98807
2018-02-01T00:58:23.634Z,98788
2018-02-01T01:08:25.876Z,98781
2018-02-01T01:18:27.433Z,98791
2018-02-01T01:28:28.907Z,98816
2018-02-01T01:38:30.412Z,98813
2018-02-01T01:48:32.005Z,98798
2018-02-01T01:58:33.519Z,98803
2018-02-01T02:08:35.106Z,98806
2018-02-01T02:18:36.693Z,98794
2018-02-01T02:28:38.258Z,98779
2018-02-01T02:38:40.519Z,98766
2018-02-01T02:48:42.058Z,98773
2018-02-01T02:58:43.519Z,98762
2018-02-01T03:08:45.100Z,98768
2018-02-01T03:18:46.647Z,98784
2018-02-01T03:28:48.194Z,98780
2018-02-01T03:38:49.745Z,98799
2018-02-01T03:48:51.261Z,98794
2018-02-01T03:58:53.572Z,98795
2018-02-01T04:08:55.818Z,98796
2018-02-01T04:18:57.348Z,98800
2018-02-01T04:28:58.846Z,98793
2018-02-01T04:39:00.513Z,98782
2018-02-01T04:49:02.788Z,98795
2018-02-01T04:59:04.488Z,98791
2018-02-01T05:09:06.022Z,98783
2018-02-01T05:19:08.316Z,98807
2018-02-01T05:29:09.960Z,98816
2018-02-01T05:39:11.547Z,98779
2018-02-01T05:49:13.853Z,98772
2018-02-01T05:59:16.177Z,98800
2018-02-01T06:09:18.444Z,98773
2018-02-01T06:19:20.132Z,98774
2018-02-01T06:29:21.716Z,98792
2018-02-01T06:39:23.318Z,98784
2018-02-01T06:49:24.924Z,98782
2018-02-01T06:59:26.443Z,98793
2018-02-01T07:09:27.996Z,98801
2018-02-01T07:19:30.291Z,98809
2018-02-01T07:29:31.893Z,98803
2018-02-01T07:39:33.461Z,98817
2018-02-01T07:49:35.029Z,98821
2018-02-01T07:59:36.614Z,98829
2018-02-01T08:09:39.033Z,98829
2018-02-01T08:19:41.348Z,98842
2018-02-01T08:29:42.896Z,98861
2018-02-01T08:39:44.496Z,98861
2018-02-01T08:49:46.024Z,98869
2018-02-01T08:59:47.547Z,98888
2018-02-01T09:09:49.794Z,98892
2018-02-01T09:19:51.392Z,98893
2018-02-01T09:29:53.671Z,98898
2018-02-01T09:39:55.285Z,98907
2018-02-01T09:49:57.555Z,98912
2018-02-01T09:59:59.166Z,98908
2018-02-01T10:10:00.739Z,98922
2018-02-01T10:20:02.317Z,98924
2018-02-01T10:30:04.690Z,98931
2018-02-01T10:40:06.467Z,98915
2018-02-01T10:50:08.020Z,98925
2018-02-01T11:00:09.657Z,98904
2018-02-01T11:10:11.700Z,98899
2018-02-01T11:20:13.290Z,98894
2018-02-01T11:30:14.833Z,98887
2018-02-01T11:40:16.398Z,98876
2018-02-01T11:50:17.952Z,98863
2018-02-01T12:00:20.280Z,98868
2018-02-01T12:10:21.822Z,98855
2018-02-01T12:20:23.514Z,98843
2018-02-01T12:30:25.138Z,98833
2018-02-01T12:40:26.716Z,98828
2018-02-01T12:50:28.335Z,98825
2018-02-01T13:00:29.936Z,98834
2018-02-01T13:10:31.464Z,98834
2018-02-01T13:20:33.369Z,98830
2018-02-01T13:30:34.948Z,98832
2018-02-01T13:40:36.629Z,98820
2018-02-01T13:50:45.060Z,98828
2018-02-01T14:00:46.696Z,98807
2018-02-01T14:10:48.247Z,98807
2018-02-01T14:20:50.548Z,98813
2018-02-01T14:30:52.109Z,98829
2018-02-01T14:40:54.479Z,98836
2018-02-01T14:50:56.785Z,98845
2018-02-01T15:00:58.322Z,98845
2018-02-01T15:10:59.927Z,98839
2018-02-01T15:21:01.532Z,98856
2018-02-01T15:31:03.133Z,98846
2018-02-01T15:41:04.707Z,98849
2018-02-01T15:51:07.021Z,98860
2018-02-01T16:01:09.334Z,98848
2018-02-01T16:11:11.569Z,98854
2018-02-01T16:21:13.140Z,98860
2018-02-01T16:31:14.708Z,98853
2018-02-01T16:41:16.256Z,98857
2018-02-01T16:51:18.642Z,98852
2018-02-01T17:01:20.233Z,98861
2018-02-01T17:11:21.818Z,98872
2018-02-01T17:21:23.431Z,98870
2018-02-01T17:31:24.977Z,98890
2018-02-01T17:41:27.301Z,98882
2018-02-01T17:51:29.612Z,98894
2018-02-01T18:01:31.930Z,98908
2018-02-01T18:11:33.492Z,98924
2018-02-01T18:21:35.059Z,98936
2018-02-01T18:31:36.661Z,98949
2018-02-01T18:41:38.310Z,98950
2018-02-01T18:51:39.884Z,98959
2018-02-01T19:01:41.581Z,98968
2018-02-01T19:11:43.231Z,98992
2018-02-01T19:21:45.033Z,98968
2018-02-01T19:31:46.816Z,98972
2018-02-01T19:41:48.619Z,98986
2018-02-01T19:51:50.212Z,98979
2018-02-01T20:01:51.927Z,98998
2018-02-01T20:11:53.616Z,99005
2018-02-01T20:21:55.217Z,99023
2018-02-01T20:31:56.889Z,99015
2018-02-01T20:41:58.529Z,99039
2018-02-01T20:52:00.223Z,99040
2018-02-01T21:02:01.886Z,99032
2018-02-01T21:12:03.396Z,99052
2018-02-01T21:22:04.954Z,99052
2018-02-01T21:32:07.301Z,99067
2018-02-01T21:42:08.894Z,99071
2018-02-01T21:52:11.310Z,99056
2018-02-01T22:02:13.677Z,99071
2018-02-01T22:12:15.232Z,99069
2018-02-01T22:22:16.876Z,99055
2018-02-01T22:32:18.501Z,99059
2018-02-01T22:42:20.160Z,99077
2018-02-01T22:52:21.721Z,99078
2018-02-01T23:02:23.390Z,99083
2018-02-01T23:12:24.961Z,99085
2018-02-01T23:22:26.480Z,99091
2018-02-01T23:32:28.068Z,99087
2018-02-01T23:42:29.604Z,99093
2018-02-01T23:52:31.144Z,99085
